Terminal Aerodrome Forecast
Issued by NWS

Home | Current Version | Previous Version | Text Only | Print | Product List | Glossary On
Versions: 1 2 3 4 5 6 7 8 9 10 11 12 13 14 15 16 17 18 19 20 21
219
FTUS43 KDLH 270734 AAC
TAFHYR
TAF AMD
KHYR 270734Z 2708/2806 00000KT P6SM BKN005 OVC012
      TEMPO 2709/2713 3SM BR OVC004
     FM271500 04005KT P6SM BKN010
     FM271900 03005KT P6SM BKN050 BKN100
     FM280100 VRB02KT P6SM SCT060=

USA.gov is the U.S. government's official web portal to all federal, state and local government web resources and services.